createdAt,value
2019-01-06T00:01:47.298Z,80.31
2019-01-06T00:07:43.932Z,80.41
2019-01-06T00:10:32.423Z,80.06
2019-01-06T00:13:11.457Z,79.35
2019-01-06T00:15:59.904Z,77.80
2019-01-06T00:18:48.449Z,80.02
2019-01-06T00:21:37.867Z,81.66
2019-01-06T00:24:26.409Z,82.00
2019-01-06T00:27:05.617Z,78.59
2019-01-06T00:29:54.696Z,80.36
2019-01-06T00:32:44.142Z,78.39
2019-01-06T00:35:33.559Z,76.67
2019-01-06T00:38:21.923Z,76.42
2019-01-06T00:41:10.622Z,74.29
2019-01-06T00:44:00.353Z,72.44
2019-01-06T00:46:49.054Z,73.51
2019-01-06T00:49:38.468Z,73.72
2019-01-06T00:52:27.677Z,72.33
2019-01-06T00:55:12.316Z,70.83
2019-01-06T00:58:00.753Z,68.80
2019-01-06T01:00:50.189Z,67.00
2019-01-06T01:03:34.377Z,67.34
2019-01-06T01:06:22.755Z,67.51
2019-01-06T01:09:11.496Z,65.96
2019-01-06T01:12:00.903Z,64.38
2019-01-06T01:14:50.507Z,65.20
2019-01-06T01:17:39.912Z,63.97
2019-01-06T01:20:28.705Z,64.46
2019-01-06T01:23:18.077Z,64.46
2019-01-06T01:29:00.897Z,61.87
2019-01-06T01:31:49.600Z,62.13
2019-01-06T01:34:37.971Z,63.44
2019-01-06T01:37:26.464Z,66.38
2019-01-06T01:40:15.859Z,67.42
2019-01-06T01:43:07.367Z,67.97
2019-01-06T01:45:55.540Z,68.75
2019-01-06T01:48:43.981Z,72.60
2019-01-06T01:51:34.967Z,65.52
2019-01-06T01:54:23.579Z,71.46
2019-01-06T01:57:11.973Z,72.47
2019-01-06T02:00:19.459Z,73.61
2019-01-06T02:03:07.837Z,73.79
2019-01-06T02:05:57.816Z,75.06
2019-01-06T02:08:47.292Z,74.33
2019-01-06T02:11:24.085Z,75.19
2019-01-06T02:14:13.557Z,75.00
2019-01-06T02:17:02.774Z,74.72
2019-01-06T02:19:51.153Z,73.18
2019-01-06T02:22:40.299Z,68.92
2019-01-06T02:25:28.730Z,69.59
2019-01-06T02:28:17.404Z,69.75
2019-01-06T02:30:59.407Z,68.28
2019-01-06T02:33:47.918Z,69.79
2019-01-06T02:39:44.542Z,70.63
2019-01-06T02:42:33.024Z,70.14
2019-01-06T02:45:21.538Z,70.19
2019-01-06T02:48:10.947Z,71.92
2019-01-06T02:50:59.639Z,71.73
2019-01-06T02:53:48.007Z,73.00
2019-01-06T02:56:36.752Z,72.49
2019-01-06T02:59:25.195Z,70.56
2019-01-06T03:02:13.624Z,67.29
2019-01-06T03:05:02.087Z,71.21
2019-01-06T03:07:50.621Z,70.47
2019-01-06T03:13:47.852Z,71.71
2019-01-06T03:16:36.269Z,71.85
2019-01-06T03:19:25.324Z,70.99
2019-01-06T03:22:13.790Z,67.62
2019-01-06T03:25:03.090Z,68.22
2019-01-06T03:27:47.946Z,70.31
2019-01-06T03:30:37.147Z,68.76
2019-01-06T03:33:25.591Z,69.51
2019-01-06T03:36:14.150Z,70.58
2019-01-06T03:39:02.540Z,68.73
2019-01-06T03:45:04.294Z,68.56
2019-01-06T03:47:53.508Z,68.99
2019-01-06T03:50:41.888Z,70.96
2019-01-06T03:53:30.662Z,69.77
2019-01-06T03:56:19.096Z,68.59
2019-01-06T03:59:07.600Z,69.05
2019-01-06T04:01:55.978Z,68.77
2019-01-06T04:04:44.515Z,67.04
2019-01-06T04:07:32.924Z,67.12
2019-01-06T04:13:30.998Z,65.21
2019-01-06T04:16:19.697Z,62.21
2019-01-06T04:22:17.729Z,65.16
2019-01-06T04:25:06.196Z,65.87
2019-01-06T04:27:54.629Z,65.55
2019-01-06T04:30:42.997Z,68.05
2019-01-06T04:33:31.442Z,68.32
2019-01-06T04:39:28.781Z,65.54
2019-01-06T04:42:17.147Z,70.26
2019-01-06T04:45:05.621Z,72.20
2019-01-06T04:47:54.089Z,72.72
2019-01-06T04:50:42.840Z,72.39
2019-01-06T04:56:38.945Z,72.40
2019-01-06T04:59:27.313Z,71.69
2019-01-06T05:02:15.800Z,68.03
2019-01-06T05:08:11.811Z,67.49
2019-01-06T05:11:00.223Z,70.41
2019-01-06T05:17:02.441Z,68.78
2019-01-06T05:19:51.124Z,67.50
2019-01-06T05:22:39.498Z,73.68
2019-01-06T05:25:28.250Z,74.89
2019-01-06T05:28:16.627Z,76.06
2019-01-06T05:31:05.716Z,75.98
2019-01-06T05:33:54.087Z,77.37
2019-01-06T05:36:37.238Z,75.03
2019-01-06T05:39:27.658Z,76.11
2019-01-06T05:42:16.083Z,80.59
2019-01-06T05:45:05.485Z,84.66
2019-01-06T05:47:55.329Z,83.48
2019-01-06T05:50:43.721Z,86.63
2019-01-06T05:53:32.149Z,90.28
2019-01-06T05:56:20.518Z,89.20
2019-01-06T05:59:09.220Z,87.18
2019-01-06T06:01:57.615Z,87.32
2019-01-06T06:05:04.988Z,88.00
2019-01-06T06:07:53.438Z,85.27
2019-01-06T06:10:41.913Z,86.35
2019-01-06T06:13:30.283Z,85.47
2019-01-06T06:16:18.976Z,87.45
2019-01-06T06:22:15.839Z,85.99
2019-01-06T06:25:04.241Z,84.50
2019-01-06T06:27:53.746Z,81.89
2019-01-06T06:30:42.118Z,82.40
2019-01-06T06:33:30.796Z,83.85
2019-01-06T06:39:28.055Z,82.51
2019-01-06T06:42:16.496Z,82.09
2019-01-06T06:45:05.121Z,84.34
2019-01-06T06:47:53.549Z,85.42
2019-01-06T06:50:42.249Z,85.05
2019-01-06T06:53:31.650Z,89.75
2019-01-06T06:56:20.155Z,87.09
2019-01-06T06:59:08.545Z,87.43
2019-01-06T07:02:35.064Z,86.56
2019-01-06T07:05:19.848Z,91.78
2019-01-06T07:08:08.335Z,90.98
2019-01-06T07:10:50.995Z,94.84
2019-01-06T07:13:41.050Z,96.30
2019-01-06T07:17:10.398Z,97.20
2019-01-06T07:19:53.319Z,100.00
2019-01-06T07:22:41.767Z,100.00
2019-01-06T07:25:30.217Z,100.00
2019-01-06T07:28:18.660Z,100.00
2019-01-06T07:31:07.115Z,100.00
2019-01-06T07:33:55.483Z,100.00
2019-01-06T07:36:43.971Z,100.00
2019-01-06T07:39:32.495Z,100.00
2019-01-06T07:42:21.951Z,100.00
2019-01-06T07:45:11.341Z,100.00
2019-01-06T07:47:59.777Z,100.00
2019-01-06T07:50:48.156Z,100.00
2019-01-06T07:53:37.589Z,100.00
2019-01-06T07:56:26.957Z,100.00
2019-01-06T07:59:07.801Z,100.00
2019-01-06T08:01:56.218Z,100.00
2019-01-06T08:04:44.663Z,100.00
2019-01-06T08:07:33.055Z,100.00
2019-01-06T08:10:22.078Z,100.00
2019-01-06T08:13:10.575Z,100.00
2019-01-06T08:15:59.801Z,100.00
2019-01-06T08:18:48.201Z,100.00
2019-01-06T08:21:36.913Z,100.00
2019-01-06T08:24:26.172Z,100.00
2019-01-06T08:27:14.596Z,98.85
2019-01-06T08:30:03.030Z,98.22
2019-01-06T08:32:51.465Z,98.26
2019-01-06T08:39:25.579Z,100.00
2019-01-06T08:42:13.955Z,96.33
2019-01-06T08:45:02.397Z,92.87
2019-01-06T08:50:58.702Z,92.76
2019-01-06T08:53:47.159Z,94.82
2019-01-06T08:56:36.478Z,93.50
2019-01-06T08:59:17.832Z,90.37
2019-01-06T09:02:07.160Z,89.65
2019-01-06T09:04:55.530Z,89.20
2019-01-06T09:07:44.008Z,88.84
2019-01-06T09:13:39.789Z,86.38
2019-01-06T09:16:28.206Z,80.21
2019-01-06T09:19:18.940Z,81.55
2019-01-06T09:22:07.328Z,80.09
2019-01-06T09:24:56.774Z,78.99
2019-01-06T09:27:45.157Z,79.19
2019-01-06T09:30:33.656Z,76.00
2019-01-06T09:36:29.463Z,78.54
2019-01-06T09:39:18.883Z,79.63
2019-01-06T09:42:07.663Z,79.78
2019-01-06T09:44:57.071Z,79.81
2019-01-06T09:47:45.535Z,75.14
2019-01-06T09:50:35.008Z,77.57
2019-01-06T09:53:23.698Z,75.69
2019-01-06T09:56:12.106Z,76.44
2019-01-06T09:59:00.617Z,76.39
2019-01-06T10:01:48.999Z,76.92
2019-01-06T10:04:38.853Z,77.33
2019-01-06T10:07:28.269Z,76.52
2019-01-06T10:10:16.903Z,78.40
2019-01-06T10:13:05.353Z,76.24
2019-01-06T10:15:54.057Z,77.03
2019-01-06T10:18:38.309Z,75.18
2019-01-06T10:21:27.812Z,76.55
2019-01-06T10:24:16.337Z,74.46
2019-01-06T10:34:00.450Z,74.15
2019-01-06T10:37:08.540Z,76.33
2019-01-06T10:40:03.278Z,77.53
2019-01-06T10:42:54.861Z,75.74
2019-01-06T10:49:33.552Z,83.97
2019-01-06T10:52:23.147Z,92.49
2019-01-06T10:58:29.388Z,73.63
2019-01-06T11:01:24.071Z,78.94
2019-01-06T11:07:50.815Z,65.82
2019-01-06T11:25:11.401Z,69.74
2019-01-06T11:28:04.373Z,68.29
2019-01-06T11:34:29.295Z,69.43
2019-01-06T11:37:17.689Z,69.69
2019-01-06T11:40:06.265Z,66.92
2019-01-06T11:42:54.742Z,64.79
2019-01-06T11:45:43.142Z,64.59
2019-01-06T11:51:40.715Z,65.02
2019-01-06T11:54:29.194Z,62.91
2019-01-06T11:57:17.665Z,62.44
2019-01-06T12:00:06.102Z,63.17
2019-01-06T12:02:54.538Z,62.72
2019-01-06T12:05:43.126Z,60.59
2019-01-06T12:08:40.675Z,63.24
2019-01-06T12:11:22.738Z,63.47
2019-01-06T12:14:11.151Z,63.89
2019-01-06T12:16:59.629Z,65.08
2019-01-06T12:22:57.860Z,64.58
2019-01-06T12:25:46.260Z,64.40
2019-01-06T12:28:34.698Z,64.72
2019-01-06T12:31:23.112Z,64.52
2019-01-06T12:37:06.750Z,62.55
2019-01-06T12:39:55.257Z,64.28
2019-01-06T12:42:44.670Z,65.47
2019-01-06T12:45:34.220Z,64.74
2019-01-06T12:48:22.627Z,65.19
2019-01-06T12:51:11.080Z,65.21
2019-01-06T12:53:59.490Z,66.44
2019-01-06T12:56:36.872Z,66.03
2019-01-06T12:59:25.319Z,64.96
2019-01-06T13:02:13.769Z,65.50
2019-01-06T13:05:02.177Z,66.50
2019-01-06T13:07:50.854Z,63.73
2019-01-06T13:10:39.332Z,63.27
2019-01-06T13:13:27.734Z,62.00
2019-01-06T13:16:17.717Z,62.31
2019-01-06T13:18:57.273Z,62.86
2019-01-06T13:21:45.732Z,61.06
2019-01-06T13:24:34.185Z,61.94
2019-01-06T13:27:22.613Z,61.77
2019-01-06T13:30:12.093Z,61.05
2019-01-06T13:33:00.568Z,59.48
2019-01-06T13:35:49.292Z,59.29
2019-01-06T13:38:39.665Z,59.98
2019-01-06T13:41:28.156Z,60.47
2019-01-06T13:44:16.638Z,61.66
2019-01-06T13:47:05.024Z,61.72
2019-01-06T13:49:53.581Z,62.06
2019-01-06T13:52:42.009Z,61.63
2019-01-06T13:55:30.430Z,61.41
2019-01-06T13:58:18.847Z,61.88
2019-01-06T14:01:07.308Z,62.54
2019-01-06T14:03:55.713Z,63.18
2019-01-06T14:06:44.690Z,62.03
2019-01-06T14:09:34.280Z,62.77
2019-01-06T14:12:21.289Z,62.83
2019-01-06T14:15:09.732Z,62.76
2019-01-06T14:17:58.479Z,64.08
2019-01-06T14:20:47.219Z,62.24
2019-01-06T14:23:35.672Z,63.99
2019-01-06T14:26:24.081Z,64.13
2019-01-06T14:29:12.547Z,63.31
2019-01-06T14:32:00.979Z,62.79
2019-01-06T14:34:50.415Z,63.58
2019-01-06T14:37:39.987Z,64.44
2019-01-06T14:40:29.391Z,65.14
2019-01-06T14:43:18.196Z,63.73
2019-01-06T14:46:06.616Z,64.67
2019-01-06T14:48:56.112Z,64.17
2019-01-06T14:51:44.510Z,65.43
2019-01-06T14:54:33.018Z,65.13
2019-01-06T15:00:29.815Z,65.06
2019-01-06T15:03:19.236Z,65.03
2019-01-06T15:09:15.003Z,65.82
2019-01-06T15:12:03.749Z,63.73
2019-01-06T15:14:52.159Z,72.07
2019-01-06T15:17:40.935Z,63.14
2019-01-06T15:20:29.398Z,63.08
2019-01-06T15:29:46.858Z,62.89
2019-01-06T15:32:38.367Z,62.95
2019-01-06T15:35:34.230Z,63.65
2019-01-06T15:38:28.404Z,65.21
2019-01-06T15:41:17.767Z,63.04
2019-01-06T15:47:14.915Z,62.74
2019-01-06T15:50:04.668Z,64.89
2019-01-06T15:52:53.067Z,63.04
2019-01-06T15:55:41.570Z,63.37
2019-01-06T15:58:31.016Z,65.68
2019-01-06T16:01:19.690Z,74.09
2019-01-06T16:04:08.098Z,66.08
2019-01-06T16:06:57.381Z,65.55
2019-01-06T16:09:45.924Z,65.20
2019-01-06T16:12:24.444Z,63.73
2019-01-06T16:15:13.857Z,63.59
2019-01-06T16:18:02.264Z,62.87
2019-01-06T16:20:50.708Z,63.39
2019-01-06T16:23:40.108Z,65.37
2019-01-06T16:26:28.574Z,64.99
2019-01-06T16:29:17.879Z,64.39
2019-01-06T16:32:06.284Z,61.80
2019-01-06T16:34:54.826Z,62.34
2019-01-06T16:37:44.123Z,63.74
2019-01-06T16:40:32.559Z,61.67
2019-01-06T16:43:21.007Z,62.67
2019-01-06T16:46:09.834Z,62.90
2019-01-06T16:48:58.237Z,64.44
2019-01-06T16:51:46.709Z,63.73
2019-01-06T16:54:35.116Z,62.38
2019-01-06T16:57:24.160Z,63.80
2019-01-06T17:00:12.601Z,62.72
2019-01-06T17:06:13.082Z,62.29
2019-01-06T17:09:01.517Z,62.00
2019-01-06T17:11:49.988Z,61.90
2019-01-06T17:14:38.429Z,61.62
2019-01-06T17:17:19.608Z,60.45
2019-01-06T17:20:09.448Z,59.78
2019-01-06T17:22:57.886Z,60.42
2019-01-06T17:25:46.326Z,59.60
2019-01-06T17:28:34.787Z,59.93
2019-01-06T17:34:30.572Z,60.14
2019-01-06T17:37:18.973Z,59.73
2019-01-06T17:40:07.501Z,59.45
2019-01-06T17:42:55.920Z,58.45
2019-01-06T17:45:45.359Z,57.85
2019-01-06T17:48:33.810Z,58.18
2019-01-06T17:51:23.221Z,58.74
2019-01-06T17:54:11.650Z,58.75
2019-01-06T17:57:01.579Z,58.08
2019-01-06T17:59:50.034Z,58.11
2019-01-06T18:02:58.444Z,57.24
2019-01-06T18:05:47.394Z,56.96
2019-01-06T18:08:35.855Z,55.56
2019-01-06T18:11:16.975Z,56.15
2019-01-06T18:14:05.446Z,54.79
2019-01-06T18:16:55.187Z,54.69
2019-01-06T18:19:43.857Z,55.41
2019-01-06T18:22:36.443Z,55.43
2019-01-06T18:25:22.509Z,55.05
2019-01-06T18:28:11.163Z,55.32
2019-01-06T18:30:59.588Z,55.09
2019-01-06T18:33:48.103Z,53.00
2019-01-06T18:36:36.497Z,53.43
2019-01-06T18:39:26.034Z,54.06
2019-01-06T18:49:02.457Z,54.23
2019-01-06T18:51:52.948Z,54.80
2019-01-06T18:54:55.499Z,54.65
2019-01-06T19:01:29.521Z,55.02
2019-01-06T19:04:18.061Z,55.08
2019-01-06T19:07:32.193Z,55.49
2019-01-06T19:10:41.067Z,53.88
2019-01-06T19:14:20.037Z,54.08
2019-01-06T19:17:09.106Z,54.90
2019-01-06T19:19:58.952Z,54.70
2019-01-06T19:22:48.476Z,54.97
2019-01-06T19:25:38.227Z,54.99
2019-01-06T19:28:26.732Z,53.97
2019-01-06T19:31:15.176Z,53.09
2019-01-06T19:34:03.583Z,54.24
2019-01-06T19:36:52.034Z,53.33
2019-01-06T19:43:00.694Z,54.30
2019-01-06T19:45:49.136Z,53.58
2019-01-06T19:48:37.568Z,53.74
2019-01-06T19:51:26.006Z,53.71
2019-01-06T19:54:14.717Z,53.43
2019-01-06T19:57:03.191Z,53.12
2019-01-06T19:59:51.653Z,54.67
2019-01-06T20:09:01.167Z,55.14
2019-01-06T20:11:52.986Z,55.47
2019-01-06T20:15:30.440Z,55.40
2019-01-06T20:18:27.350Z,55.41
2019-01-06T20:21:38.678Z,56.15
2019-01-06T20:24:30.041Z,57.29
2019-01-06T20:27:38.207Z,58.92
2019-01-06T20:30:27.169Z,58.14
2019-01-06T20:33:16.556Z,58.55
2019-01-06T20:36:05.032Z,59.40
2019-01-06T20:38:53.507Z,59.09
2019-01-06T20:41:41.957Z,58.17
2019-01-06T20:44:31.258Z,57.79
2019-01-06T20:47:14.440Z,57.97
2019-01-06T20:50:02.829Z,58.67
2019-01-06T20:52:51.318Z,57.74
2019-01-06T20:55:39.770Z,58.20
2019-01-06T20:58:28.148Z,60.22
2019-01-06T21:01:16.593Z,59.20
2019-01-06T21:04:05.412Z,59.65
2019-01-06T21:06:53.811Z,59.96
2019-01-06T21:09:42.346Z,60.13
2019-01-06T21:12:33.037Z,59.99
2019-01-06T21:18:29.342Z,60.76
2019-01-06T21:21:11.218Z,60.01
2019-01-06T21:23:59.658Z,59.24
2019-01-06T21:29:55.431Z,60.74
2019-01-06T21:32:43.907Z,58.46
2019-01-06T21:35:32.434Z,59.30
2019-01-06T21:38:21.711Z,61.45
2019-01-06T21:41:10.232Z,59.89
2019-01-06T21:50:46.419Z,59.74
2019-01-06T21:53:53.463Z,60.31
2019-01-06T21:57:05.296Z,60.74
2019-01-06T21:59:59.542Z,61.39
2019-01-06T22:06:31.132Z,60.51
2019-01-06T22:09:22.850Z,61.58
2019-01-06T22:12:22.582Z,63.93
2019-01-06T22:15:06.768Z,64.49
2019-01-06T22:18:11.394Z,63.02
2019-01-06T22:24:38.170Z,66.17
2019-01-06T22:30:52.210Z,66.58
2019-01-06T22:34:03.506Z,67.41
2019-01-06T22:36:55.101Z,68.55
2019-01-06T22:39:48.964Z,68.84
2019-01-06T22:42:55.454Z,66.61
2019-01-06T22:45:57.683Z,68.26
2019-01-06T22:55:41.575Z,69.23
2019-01-06T23:02:15.030Z,71.17
2019-01-06T23:05:21.285Z,70.44
2019-01-06T23:08:14.664Z,70.00
2019-01-06T23:11:16.618Z,70.83
2019-01-06T23:17:41.062Z,73.84
2019-01-06T23:20:50.595Z,75.24
2019-01-06T23:27:32.723Z,73.16
2019-01-06T23:33:15.391Z,75.73
2019-01-06T23:36:04.789Z,78.24
2019-01-06T23:38:53.206Z,83.97
2019-01-06T23:41:41.701Z,87.01
2019-01-06T23:44:30.399Z,86.81
2019-01-06T23:47:19.784Z,82.86
2019-01-06T23:50:09.176Z,82.44
2019-01-06T23:52:58.631Z,77.88
2019-01-06T23:55:47.500Z,81.72
2019-01-06T23:58:35.932Z,82.36
